createdAt,value
2018-08-10T00:00:59.233Z,22.99
2018-08-10T00:05:42.715Z,22.86
2018-08-10T00:10:25.927Z,23.21
2018-08-10T00:15:10.841Z,22.77
2018-08-10T00:19:54.342Z,23.09
2018-08-10T00:24:37.860Z,22.77
2018-08-10T00:29:21.265Z,22.81
2018-08-10T00:34:04.404Z,22.71
2018-08-10T00:38:47.985Z,22.78
2018-08-10T00:43:34.606Z,22.63
2018-08-10T00:48:18.101Z,22.64
2018-08-10T00:53:02.716Z,22.79
2018-08-10T00:57:46.921Z,22.69
2018-08-10T01:02:30.472Z,22.67
2018-08-10T01:07:13.816Z,22.67
2018-08-10T01:12:00.860Z,22.66
2018-08-10T01:16:44.309Z,22.50
2018-08-10T01:21:27.850Z,22.55
2018-08-10T01:26:11.200Z,22.51
2018-08-10T01:30:55.625Z,22.55
2018-08-10T01:35:39.030Z,22.31
2018-08-10T01:40:22.393Z,22.70
2018-08-10T01:45:08.044Z,22.36
2018-08-10T01:49:51.498Z,22.21
2018-08-10T01:54:35.097Z,22.55
2018-08-10T01:59:18.350Z,22.49
2018-08-10T02:04:04.833Z,22.34
2018-08-10T02:08:48.313Z,22.24
2018-08-10T02:13:31.627Z,22.44
2018-08-10T02:18:14.992Z,22.33
2018-08-10T02:22:58.334Z,22.10
2018-08-10T02:27:43.723Z,22.07
2018-08-10T02:32:27.133Z,22.04
2018-08-10T02:37:10.612Z,21.94
2018-08-10T02:41:54.261Z,21.95
2018-08-10T02:46:37.697Z,21.91
2018-08-10T02:51:21.278Z,21.91
2018-08-10T02:56:04.581Z,21.95
2018-08-10T03:00:49.146Z,21.83
2018-08-10T03:05:32.525Z,21.68
2018-08-10T03:10:16.082Z,21.81
2018-08-10T03:14:59.459Z,21.63
2018-08-10T03:19:42.838Z,21.70
2018-08-10T03:24:29.909Z,21.94
2018-08-10T03:29:13.275Z,21.78
2018-08-10T03:34:00.252Z,21.91
2018-08-10T03:38:43.537Z,21.60
2018-08-10T03:43:31.154Z,21.83
2018-08-10T03:48:14.603Z,21.71
2018-08-10T03:52:57.898Z,21.62
2018-08-10T03:57:41.257Z,21.81
2018-08-10T04:02:30.565Z,21.82
2018-08-10T04:07:13.874Z,22.08
2018-08-10T04:11:58.165Z,22.02
2018-08-10T04:16:41.557Z,21.97
2018-08-10T04:21:24.922Z,22.11
2018-08-10T04:26:08.366Z,22.27
2018-08-10T04:30:55.644Z,22.18
2018-08-10T04:35:39.116Z,22.12
2018-08-10T04:40:25.919Z,22.23
2018-08-10T04:45:09.530Z,22.45
2018-08-10T04:49:52.989Z,22.53
2018-08-10T04:54:36.312Z,22.75
2018-08-10T04:59:19.624Z,22.77
2018-08-10T05:04:06.494Z,22.94
2018-08-10T05:08:49.924Z,22.82
2018-08-10T05:13:34.334Z,23.01
2018-08-10T05:18:32.525Z,23.13
2018-08-10T05:23:19.933Z,23.22
2018-08-10T05:28:03.400Z,23.42
2018-08-10T05:32:47.864Z,23.48
2018-08-10T05:37:31.263Z,23.61
2018-08-10T05:42:15.042Z,23.86
2018-08-10T05:46:58.799Z,23.89
2018-08-10T05:51:42.197Z,24.08
2018-08-10T06:01:07.891Z,24.17
2018-08-10T06:05:51.260Z,24.37
2018-08-10T06:10:38.073Z,24.42
2018-08-10T06:15:21.514Z,24.64
2018-08-10T06:20:09.735Z,24.62
2018-08-10T06:24:53.036Z,24.77
2018-08-10T06:29:36.287Z,24.90
2018-08-10T06:34:19.735Z,24.91
2018-08-10T06:39:03.062Z,24.99
2018-08-10T06:43:49.812Z,25.24
2018-08-10T06:48:33.179Z,25.13
2018-08-10T06:53:17.059Z,25.30
2018-08-10T06:58:00.548Z,25.41
2018-08-10T07:02:52.577Z,25.64
2018-08-10T07:07:36.642Z,25.43
2018-08-10T07:12:23.448Z,26.19
2018-08-10T07:18:36.017Z,26.10
2018-08-10T07:23:19.452Z,26.49
2018-08-10T07:28:02.800Z,26.58
2018-08-10T07:32:49.468Z,26.77
2018-08-10T07:37:32.880Z,26.85
2018-08-10T07:42:19.788Z,27.14
2018-08-10T07:47:03.064Z,27.31
2018-08-10T07:51:47.740Z,27.29
2018-08-10T07:56:31.229Z,27.30
2018-08-10T08:01:15.592Z,27.62
2018-08-10T08:05:59.626Z,27.57
2018-08-10T08:10:46.540Z,27.05
2018-08-10T08:15:29.853Z,27.18
2018-08-10T08:20:13.327Z,27.55
2018-08-10T08:24:56.856Z,27.42
2018-08-10T08:29:43.605Z,27.51
2018-08-10T08:34:39.334Z,27.36
2018-08-10T08:39:37.321Z,28.26
2018-08-10T08:44:33.239Z,28.13
2018-08-10T08:49:16.571Z,28.51
2018-08-10T08:54:10.799Z,27.91
2018-08-10T08:58:54.778Z,27.49
2018-08-10T09:04:52.898Z,28.18
2018-08-10T09:09:41.309Z,27.95
2018-08-10T09:14:43.103Z,27.59
2018-08-10T09:19:27.550Z,28.02
2018-08-10T09:24:10.768Z,28.55
2018-08-10T09:28:54.263Z,28.14
2018-08-10T09:33:41.081Z,28.06
2018-08-10T09:38:24.491Z,27.90
2018-08-10T09:43:11.640Z,27.83
2018-08-10T09:47:55.949Z,27.85
2018-08-10T09:52:42.483Z,28.24
2018-08-10T09:57:25.970Z,28.66
2018-08-10T10:02:18.846Z,28.75
2018-08-10T10:07:02.336Z,28.92
2018-08-10T10:11:46.770Z,29.07
2018-08-10T10:16:30.057Z,28.86
2018-08-10T10:21:14.515Z,28.90
2018-08-10T10:25:58.078Z,29.07
2018-08-10T10:30:42.504Z,29.13
2018-08-10T10:35:25.942Z,28.97
2018-08-10T10:40:11.313Z,28.71
2018-08-10T10:44:54.690Z,28.95
2018-08-10T10:49:39.262Z,29.46
2018-08-10T10:54:22.654Z,29.00
2018-08-10T10:59:09.646Z,29.12
2018-08-10T11:03:53.064Z,29.08
2018-08-10T11:08:40.144Z,29.11
2018-08-10T11:13:24.613Z,29.03
2018-08-10T11:18:08.146Z,29.33
2018-08-10T11:22:51.651Z,28.89
2018-08-10T11:27:34.973Z,29.13
2018-08-10T11:32:21.505Z,29.10
2018-08-10T11:37:04.857Z,29.12
2018-08-10T11:41:49.138Z,29.20
2018-08-10T11:46:32.565Z,29.23
2018-08-10T11:51:16.249Z,29.27
2018-08-10T11:55:59.647Z,29.26
2018-08-10T12:00:43.211Z,29.50
2018-08-10T12:05:26.609Z,29.20
2018-08-10T12:10:10.854Z,29.18
2018-08-10T12:14:54.276Z,29.14
2018-08-10T12:19:41.049Z,29.44
2018-08-10T12:24:24.485Z,28.90
2018-08-10T12:29:07.951Z,29.33
2018-08-10T12:33:51.351Z,28.99
2018-08-10T12:38:34.537Z,29.26
2018-08-10T12:43:17.760Z,29.67
2018-08-10T12:48:01.161Z,29.45
2018-08-10T12:52:44.491Z,29.02
2018-08-10T12:57:28.043Z,29.12
2018-08-10T13:02:11.433Z,29.04
2018-08-10T13:06:54.837Z,29.58
2018-08-10T13:11:39.663Z,28.91
2018-08-10T13:16:22.853Z,29.01
2018-08-10T13:21:10.020Z,28.53
2018-08-10T13:25:53.481Z,28.63
2018-08-10T13:30:40.262Z,29.00
2018-08-10T13:35:23.645Z,29.09
2018-08-10T13:40:10.557Z,29.11
2018-08-10T13:44:53.906Z,28.97
2018-08-10T13:49:37.400Z,28.94
2018-08-10T13:54:20.746Z,29.42
2018-08-10T13:59:05.090Z,29.43
2018-08-10T14:03:48.389Z,29.18
2018-08-10T14:08:31.796Z,28.86
2018-08-10T14:13:15.168Z,28.30
2018-08-10T14:17:58.553Z,28.69
2018-08-10T14:22:42.164Z,28.23
2018-08-10T14:27:25.483Z,28.07
2018-08-10T14:32:10.016Z,28.19
2018-08-10T14:36:53.436Z,28.44
2018-08-10T14:41:37.141Z,27.90
2018-08-10T14:46:23.350Z,27.85
2018-08-10T14:51:10.118Z,27.85
2018-08-10T14:55:53.594Z,27.93
2018-08-10T15:00:37.920Z,27.86
2018-08-10T15:05:21.197Z,27.79
2018-08-10T15:10:10.735Z,27.77
2018-08-10T15:14:54.156Z,27.62
2018-08-10T15:19:39.333Z,27.77
2018-08-10T15:24:22.784Z,27.64
2018-08-10T15:29:29.297Z,27.84
2018-08-10T15:34:13.105Z,27.57
2018-08-10T15:38:59.273Z,27.53
2018-08-10T15:43:42.842Z,27.42
2018-08-10T15:48:26.259Z,27.44
2018-08-10T15:53:09.664Z,27.39
2018-08-10T15:57:52.928Z,27.33
2018-08-10T16:02:39.561Z,27.27
2018-08-10T16:07:22.942Z,27.37
2018-08-10T16:12:10.149Z,27.23
2018-08-10T16:16:53.615Z,27.17
2018-08-10T16:21:40.425Z,27.03
2018-08-10T16:26:23.957Z,27.06
2018-08-10T16:31:07.571Z,26.89
2018-08-10T16:35:50.939Z,26.92
2018-08-10T16:40:37.635Z,26.76
2018-08-10T16:45:20.907Z,26.84
2018-08-10T16:50:07.634Z,26.88
2018-08-10T16:54:51.085Z,26.89
2018-08-10T16:59:34.764Z,26.90
2018-08-10T17:04:18.305Z,27.06
2018-08-10T17:09:02.944Z,26.74
2018-08-10T17:13:46.542Z,26.61
2018-08-10T17:18:29.909Z,26.61
2018-08-10T17:23:13.324Z,26.57
2018-08-10T17:27:56.738Z,26.51
2018-08-10T17:32:44.562Z,26.54
2018-08-10T17:37:27.931Z,26.19
2018-08-10T17:42:16.186Z,26.26
2018-08-10T17:47:02.733Z,26.06
2018-08-10T17:51:46.609Z,26.02
2018-08-10T17:56:32.871Z,25.81
2018-08-10T18:01:19.936Z,26.08
2018-08-10T18:06:58.522Z,25.90
2018-08-10T18:11:47.204Z,25.77
2018-08-10T18:16:31.603Z,26.00
2018-08-10T18:21:15.603Z,25.94
2018-08-10T18:25:59.089Z,25.85
2018-08-10T18:31:05.258Z,25.98
2018-08-10T18:35:50.093Z,25.66
2018-08-10T18:40:38.877Z,25.61
2018-08-10T18:45:22.696Z,25.79
2018-08-10T18:50:11.948Z,25.48
2018-08-10T18:54:56.056Z,25.67
2018-08-10T18:59:39.774Z,25.51
2018-08-10T19:04:23.531Z,25.41
2018-08-10T19:09:11.526Z,25.23
2018-08-10T19:13:55.274Z,25.45
2018-08-10T19:18:42.599Z,25.48
2018-08-10T19:24:57.781Z,25.37
2018-08-10T19:29:41.726Z,25.26
2018-08-10T19:34:25.250Z,24.93
2018-08-10T19:39:12.630Z,25.37
2018-08-10T19:43:56.195Z,25.04
2018-08-10T19:48:39.864Z,24.86
2018-08-10T19:53:23.380Z,24.94
2018-08-10T19:58:08.573Z,24.72
2018-08-10T20:02:52.002Z,24.47
2018-08-10T20:07:35.402Z,24.41
2018-08-10T20:12:18.841Z,24.03
2018-08-10T20:17:02.246Z,24.25
2018-08-10T20:21:46.957Z,24.35
2018-08-10T20:26:31.239Z,24.36
2018-08-10T20:31:14.740Z,24.19
2018-08-10T20:35:58.311Z,24.08
2018-08-10T20:40:43.074Z,23.70
2018-08-10T20:45:26.528Z,23.55
2018-08-10T20:50:14.678Z,23.60
2018-08-10T20:54:58.169Z,23.79
2018-08-10T20:59:41.707Z,24.19
2018-08-10T21:04:25.253Z,24.05
2018-08-10T21:09:12.805Z,23.29
2018-08-10T21:13:56.284Z,23.25
2018-08-10T21:18:39.929Z,23.31
2018-08-10T21:23:23.416Z,23.78
2018-08-10T21:28:07.084Z,23.49
2018-08-10T21:32:50.540Z,23.07
2018-08-10T21:37:34.040Z,23.37
2018-08-10T21:42:17.583Z,23.29
2018-08-10T21:47:01.027Z,23.18
2018-08-10T21:51:44.689Z,23.65
2018-08-10T21:56:28.016Z,23.30
2018-08-10T22:01:11.524Z,23.23
2018-08-10T22:05:54.898Z,23.03
2018-08-10T22:10:38.699Z,23.33
2018-08-10T22:15:27.445Z,22.90
2018-08-10T22:20:11.792Z,23.07
2018-08-10T22:24:55.069Z,23.17
2018-08-10T22:29:38.925Z,23.28
2018-08-10T22:34:24.914Z,22.89
2018-08-10T22:39:09.830Z,23.27
2018-08-10T22:43:53.225Z,23.15
2018-08-10T22:48:36.744Z,23.45
2018-08-10T22:53:20.112Z,23.34
2018-08-10T22:58:04.602Z,23.03
2018-08-10T23:02:48.059Z,23.11
2018-08-10T23:07:31.521Z,23.18
2018-08-10T23:12:14.903Z,23.00
2018-08-10T23:16:58.309Z,22.82
2018-08-10T23:21:42.721Z,22.86
2018-08-10T23:26:26.149Z,23.13
2018-08-10T23:31:09.420Z,23.16
2018-08-10T23:35:52.883Z,23.13
2018-08-10T23:40:37.325Z,22.66
2018-08-10T23:45:20.852Z,22.94
2018-08-10T23:50:08.691Z,22.97
2018-08-10T23:54:52.074Z,22.97
2018-08-10T23:59:35.640Z,22.63
